Time;durP1;ratioP1;P1;durP2;ratioP2;P2;SDS_P1;SDS_P2;PMS_P1;PMS_P2;Temp;Humidity;BMP_temperature;BMP_pressure;BME280_temperature;BME280_humidity;BME280_pressure;Samples;Min_cycle;Max_cycle;Signal;HPM_P1;HPM_P2
2023/12/05 00:00:48;;;;;;;8.23;4.87;;;8.10;99.90;;;;;;7283218;19;20193;-77
2023/12/05 00:03:14;;;;;;;9.23;4.93;;;8.00;99.90;;;;;;7279324;19;20204;-77
2023/12/05 00:05:40;;;;;;;9.27;5.33;;;8.00;99.90;;;;;;7280484;19;20189;-77
2023/12/05 00:08:05;;;;;;;9.13;5.03;;;8.00;99.90;;;;;;7281332;19;20219;-77
2023/12/05 00:10:32;;;;;;;9.17;5.10;;;8.00;99.90;;;;;;7279641;19;20662;-77
2023/12/05 00:13:00;;;;;;;10.60;5.20;;;7.90;99.90;;;;;;7298718;19;20191;-76
2023/12/05 00:15:26;;;;;;;8.57;4.83;;;7.90;99.90;;;;;;7303551;19;20600;-77
2023/12/05 00:17:52;;;;;;;8.60;5.03;;;7.90;99.90;;;;;;7280043;19;20203;-77
2023/12/05 00:20:18;;;;;;;9.17;4.83;;;8.00;99.90;;;;;;7279668;19;20188;-77
2023/12/05 00:22:44;;;;;;;9.20;4.77;;;7.90;99.90;;;;;;7279320;19;20197;-76
2023/12/05 00:25:10;;;;;;;12.20;5.13;;;8.00;99.90;;;;;;7277227;19;20185;-77
2023/12/05 00:27:36;;;;;;;8.00;4.37;;;8.00;99.90;;;;;;7280394;19;20212;-77
2023/12/05 00:30:03;;;;;;;9.17;5.00;;;7.90;99.90;;;;;;7280117;19;20185;-77
2023/12/05 00:32:28;;;;;;;8.20;4.87;;;7.90;99.90;;;;;;7288181;19;20658;-77
2023/12/05 00:34:54;;;;;;;7.80;4.60;;;7.90;99.90;;;;;;7303665;19;20188;-76
2023/12/05 00:37:20;;;;;;;9.83;5.37;;;7.90;99.90;;;;;;7288458;19;20208;-77
2023/12/05 00:39:46;;;;;;;9.53;5.10;;;7.90;99.90;;;;;;7285763;19;20510;-77
2023/12/05 00:42:11;;;;;;;8.17;4.67;;;7.90;99.90;;;;;;7287226;19;20257;-76
2023/12/05 00:44:37;;;;;;;9.77;5.00;;;7.90;99.90;;;;;;7288106;19;20248;-77
2023/12/05 00:47:05;;;;;;;9.03;5.20;;;8.00;99.90;;;;;;7287673;19;20241;-78
2023/12/05 00:49:34;;;;;;;9.43;5.40;;;8.10;99.90;;;;;;7287966;19;20185;-77
2023/12/05 00:52:00;;;;;;;9.20;5.10;;;8.10;99.90;;;;;;7284784;19;20551;-77
2023/12/05 00:54:26;;;;;;;8.87;4.80;;;8.10;99.90;;;;;;7307645;19;20294;-77
2023/12/05 00:56:52;;;;;;;9.77;5.20;;;8.00;99.90;;;;;;7287628;19;20201;-77
2023/12/05 00:59:17;;;;;;;9.33;4.90;;;8.10;99.90;;;;;;7288523;19;20574;-76
2023/12/05 01:01:43;;;;;;;9.60;5.17;;;8.10;99.90;;;;;;7288250;19;20193;-77
2023/12/05 01:04:09;;;;;;;9.90;5.57;;;8.10;99.90;;;;;;7291893;19;20589;-77
2023/12/05 01:06:35;;;;;;;11.57;5.60;;;8.10;99.90;;;;;;7289955;19;20189;-77
2023/12/05 01:09:00;;;;;;;10.27;5.20;;;8.20;99.90;;;;;;7286407;19;20201;-77
2023/12/05 01:11:26;;;;;;;12.00;5.50;;;8.10;99.90;;;;;;7307349;19;20256;-77
2023/12/05 01:13:52;;;;;;;9.57;5.67;;;8.20;99.90;;;;;;7283922;19;20184;-78
2023/12/05 01:16:18;;;;;;;12.43;5.50;;;8.10;99.90;;;;;;7284744;19;20610;-77
2023/12/05 01:18:43;;;;;;;10.17;5.50;;;8.20;99.90;;;;;;7284358;19;20694;-77
2023/12/05 01:21:09;;;;;;;11.87;5.77;;;8.20;99.90;;;;;;7285887;19;20244;-76
2023/12/05 01:23:35;;;;;;;11.47;5.60;;;8.30;99.90;;;;;;7284477;19;20184;-76
2023/12/05 01:26:01;;;;;;;10.00;5.63;;;8.30;99.90;;;;;;7285900;19;20192;-77
2023/12/05 01:28:26;;;;;;;10.83;5.43;;;8.40;99.90;;;;;;7308344;19;20240;-77
2023/12/05 01:30:52;;;;;;;9.83;5.63;;;8.30;99.90;;;;;;7286132;19;20948;-76
2023/12/05 01:33:18;;;;;;;9.80;5.60;;;8.40;99.90;;;;;;7285733;19;20655;-77
2023/12/05 01:35:43;;;;;;;11.67;5.23;;;8.30;99.90;;;;;;7285585;19;20190;-77
2023/12/05 01:38:09;;;;;;;11.47;5.80;;;8.40;99.90;;;;;;7285966;19;20835;-76
2023/12/05 01:40:35;;;;;;;11.73;5.47;;;8.40;99.90;;;;;;7288276;19;20576;-77
2023/12/05 01:43:00;;;;;;;10.33;5.50;;;8.30;99.90;;;;;;7286050;19;20180;-77
2023/12/05 01:45:26;;;;;;;9.17;5.60;;;8.40;99.90;;;;;;7307454;19;20877;-77
2023/12/05 01:47:52;;;;;;;10.87;5.80;;;8.40;99.90;;;;;;7283495;19;20185;-76
2023/12/05 01:50:25;;;;;;;10.67;5.77;;;8.40;99.90;;;;;;7286223;19;20952;-76
2023/12/05 01:52:58;;;;;;;11.13;5.63;;;8.40;99.90;;;;;;7284173;19;20582;-77
2023/12/05 01:55:26;;;;;;;12.70;6.10;;;8.50;99.90;;;;;;7288128;19;20189;-77
2023/12/05 01:57:52;;;;;;;13.23;6.10;;;8.60;99.90;;;;;;7285780;19;20652;-77
2023/12/05 02:00:18;;;;;;;13.37;6.60;;;8.60;99.90;;;;;;7286230;19;21044;-76
2023/12/05 02:02:45;;;;;;;10.57;5.70;;;8.70;99.90;;;;;;7286051;19;20187;-76
2023/12/05 02:05:12;;;;;;;12.50;6.40;;;8.70;99.90;;;;;;7283142;19;20223;-77
2023/12/05 02:07:38;;;;;;;10.97;5.93;;;8.70;99.90;;;;;;7284642;19;20244;-76
2023/12/05 02:10:06;;;;;;;13.10;6.27;;;8.80;99.90;;;;;;7282931;19;20544;-77
2023/12/05 02:12:32;;;;;;;12.33;6.13;;;8.70;99.90;;;;;;7283851;19;20201;-76
2023/12/05 02:14:58;;;;;;;12.67;6.50;;;8.80;99.90;;;;;;7300920;19;20212;-76
2023/12/05 02:17:30;;;;;;;11.07;6.60;;;8.80;99.90;;;;;;7299800;19;20185;-77
2023/12/05 02:20:18;;;;;;;11.80;6.97;;;8.70;99.90;;;;;;7284909;19;20560;-77
2023/12/05 02:23:14;;;;;;;12.07;6.77;;;8.80;99.90;;;;;;7182378;19;2005573;-77
2023/12/05 02:26:06;;;;;;;12.40;6.57;;;8.80;99.90;;;;;;7182796;19;2004571;-76
2023/12/05 02:28:33;;;;;;;14.93;6.77;;;8.80;99.90;;;;;;7261978;19;20192;-76
2023/12/05 02:30:58;;;;;;;11.33;7.00;;;8.90;99.90;;;;;;7297794;19;20276;-76
2023/12/05 02:33:24;;;;;;;12.03;6.93;;;8.90;99.90;;;;;;7299378;19;20214;-77
2023/12/05 02:36:00;;;;;;;13.20;6.97;;;9.00;99.90;;;;;;7284186;19;20307;-76
2023/12/05 02:38:39;;;;;;;13.27;7.30;;;9.00;99.90;;;;;;7285035;19;20898;-77
2023/12/05 02:41:14;;;;;;;13.93;7.53;;;8.90;99.90;;;;;;7181940;19;2004564;-76
2023/12/05 02:43:51;;;;;;;15.20;8.07;;;8.90;99.90;;;;;;7283319;19;20204;-77
2023/12/05 02:46:19;;;;;;;15.20;7.73;;;8.90;99.90;;;;;;7284053;19;20199;-77
2023/12/05 02:48:45;;;;;;;14.73;8.00;;;9.00;99.90;;;;;;7283705;19;20201;-77
2023/12/05 02:51:11;;;;;;;14.90;7.80;;;8.80;99.90;;;;;;7283976;19;20190;-76
2023/12/05 02:53:37;;;;;;;13.63;7.60;;;8.80;99.90;;;;;;7283163;19;20965;-77
2023/12/05 02:56:04;;;;;;;13.93;7.50;;;8.90;99.90;;;;;;7282808;19;20200;-77
2023/12/05 02:58:30;;;;;;;13.47;7.93;;;8.80;99.90;;;;;;7282189;19;20194;-77
2023/12/05 03:00:56;;;;;;;12.83;7.70;;;8.90;99.90;;;;;;7303360;19;20659;-77
2023/12/05 03:03:21;;;;;;;14.37;8.27;;;8.80;99.90;;;;;;7283592;19;20262;-77
2023/12/05 03:05:47;;;;;;;13.27;7.87;;;8.80;99.90;;;;;;7282173;19;20203;-77
2023/12/05 03:08:13;;;;;;;13.63;8.43;;;8.80;99.90;;;;;;7283362;19;20226;-76
2023/12/05 03:10:38;;;;;;;15.20;8.70;;;8.80;99.90;;;;;;7283411;19;20202;-77
2023/12/05 03:13:04;;;;;;;15.67;8.60;;;8.90;99.90;;;;;;7283134;19;20242;-77
2023/12/05 03:15:30;;;;;;;14.67;8.20;;;9.00;99.90;;;;;;7281659;19;20215;-77
2023/12/05 03:17:56;;;;;;;13.30;8.00;;;9.00;99.90;;;;;;7304661;19;20190;-77
2023/12/05 03:20:21;;;;;;;15.87;8.50;;;9.00;99.90;;;;;;7282047;19;20182;-77
2023/12/05 03:22:47;;;;;;;13.53;7.90;;;9.00;99.90;;;;;;7279879;19;20190;-77
2023/12/05 03:25:13;;;;;;;13.00;7.73;;;9.00;99.90;;;;;;7283448;19;20206;-77
2023/12/05 03:27:39;;;;;;;13.17;7.57;;;9.00;99.90;;;;;;7282118;19;20199;-77
2023/12/05 03:30:05;;;;;;;13.90;7.90;;;9.10;99.90;;;;;;7282209;19;20202;-76
2023/12/05 03:32:31;;;;;;;13.97;7.77;;;9.10;99.90;;;;;;7281872;19;20266;-77
2023/12/05 03:34:56;;;;;;;15.47;8.57;;;9.20;99.90;;;;;;7304099;19;20182;-77
2023/12/05 03:37:22;;;;;;;13.37;7.93;;;9.20;99.90;;;;;;7283367;19;21020;-77
2023/12/05 03:39:48;;;;;;;13.47;7.50;;;9.30;99.90;;;;;;7281844;19;20204;-77
2023/12/05 03:42:13;;;;;;;14.27;7.37;;;9.40;99.90;;;;;;7281360;19;20181;-77
2023/12/05 03:44:39;;;;;;;15.20;7.87;;;9.30;99.90;;;;;;7282496;19;20199;-77
2023/12/05 03:47:05;;;;;;;16.30;7.53;;;9.30;99.90;;;;;;7281699;19;20984;-77
2023/12/05 03:49:30;;;;;;;13.90;6.67;;;9.40;99.90;;;;;;7280922;19;20194;-76
2023/12/05 03:51:56;;;;;;;11.87;7.03;;;9.50;99.90;;;;;;7304344;19;20577;-77
2023/12/05 03:54:22;;;;;;;13.83;6.77;;;9.50;99.90;;;;;;7280920;19;20187;-77
2023/12/05 03:56:50;;;;;;;11.70;6.67;;;9.50;99.90;;;;;;7281698;19;20514;-77
2023/12/05 03:59:16;;;;;;;11.23;6.50;;;9.50;99.90;;;;;;7280772;19;20221;-77
2023/12/05 04:01:41;;;;;;;13.03;6.47;;;9.50;99.90;;;;;;7280313;19;20190;-77
2023/12/05 04:04:07;;;;;;;12.83;6.37;;;9.60;99.90;;;;;;7279981;19;20194;-77
2023/12/05 04:06:33;;;;;;;11.93;5.93;;;9.60;99.90;;;;;;7280182;19;20241;-77
2023/12/05 04:08:58;;;;;;;11.53;6.13;;;9.70;99.90;;;;;;7297298;19;20190;-76
2023/12/05 04:11:32;;;;;;;11.27;5.80;;;9.80;99.90;;;;;;7292213;19;20240;-77
2023/12/05 04:13:58;;;;;;;12.40;5.70;;;9.90;99.90;;;;;;7281590;19;20565;-76
2023/12/05 04:16:25;;;;;;;11.30;5.23;;;9.90;99.90;;;;;;7282043;19;20198;-77
2023/12/05 04:18:50;;;;;;;12.07;5.40;;;9.90;99.90;;;;;;7279318;19;20196;-77
2023/12/05 04:21:18;;;;;;;10.23;5.30;;;9.90;99.90;;;;;;7280656;19;20213;-76
2023/12/05 04:23:44;;;;;;;9.70;5.37;;;10.00;99.90;;;;;;7281619;19;20572;-77
2023/12/05 04:26:17;;;;;;;10.17;5.73;;;10.00;99.90;;;;;;7281336;19;20203;-77
2023/12/05 04:28:42;;;;;;;10.87;5.53;;;10.10;99.90;;;;;;7280757;19;20670;-77
2023/12/05 04:31:08;;;;;;;11.20;6.00;;;10.10;99.90;;;;;;7278862;19;20292;-77
2023/12/05 04:33:34;;;;;;;11.27;5.90;;;10.10;99.90;;;;;;7277735;19;20190;-77
2023/12/05 04:36:00;;;;;;;11.30;5.93;;;10.10;99.90;;;;;;7281500;19;20190;-76
2023/12/05 04:38:26;;;;;;;10.90;6.47;;;10.10;99.90;;;;;;7304962;19;20800;-76
2023/12/05 04:40:52;;;;;;;13.27;7.07;;;10.10;99.90;;;;;;7280428;19;20194;-78
2023/12/05 04:43:18;;;;;;;11.57;6.53;;;10.20;99.90;;;;;;7280801;19;20183;-77
2023/12/05 04:45:43;;;;;;;13.00;6.47;;;10.20;99.90;;;;;;7278361;19;20195;-77
2023/12/05 04:48:09;;;;;;;15.50;7.63;;;10.10;99.90;;;;;;7278696;19;20655;-77
2023/12/05 04:50:35;;;;;;;14.00;7.47;;;10.10;99.90;;;;;;7279680;19;20371;-77
2023/12/05 04:53:00;;;;;;;13.97;7.70;;;10.10;99.90;;;;;;7278987;19;20202;-77
2023/12/05 04:55:26;;;;;;;13.47;7.47;;;10.10;99.90;;;;;;7301081;19;20200;-77
2023/12/05 04:57:52;;;;;;;13.87;7.43;;;10.10;99.90;;;;;;7278815;19;20199;-78
2023/12/05 05:00:18;;;;;;;12.43;7.30;;;10.10;99.90;;;;;;7278847;19;20191;-79
2023/12/05 05:02:44;;;;;;;12.47;7.43;;;10.10;99.90;;;;;;7279285;19;20187;-77
2023/12/05 05:05:12;;;;;;;13.37;7.40;;;10.10;99.90;;;;;;7278385;19;20196;-77
2023/12/05 05:07:37;;;;;;;14.00;7.83;;;10.00;99.90;;;;;;7279442;19;20570;-77
2023/12/05 05:10:03;;;;;;;15.40;8.17;;;10.00;99.90;;;;;;7280734;19;20202;-77
2023/12/05 05:12:29;;;;;;;14.00;7.63;;;10.10;99.90;;;;;;7289812;19;20602;-76
2023/12/05 05:14:55;;;;;;;13.13;7.40;;;10.10;99.90;;;;;;7298825;19;20203;-76
2023/12/05 05:17:21;;;;;;;13.20;7.50;;;10.10;99.90;;;;;;7277937;19;20260;-76
2023/12/05 05:19:47;;;;;;;15.17;7.63;;;10.20;99.90;;;;;;7278489;19;20548;-76
2023/12/05 05:22:13;;;;;;;14.07;7.87;;;10.20;99.90;;;;;;7281848;19;20536;-75
2023/12/05 05:24:39;;;;;;;12.87;7.70;;;10.10;99.90;;;;;;7286349;19;20210;-75
2023/12/05 05:27:04;;;;;;;13.30;7.53;;;10.20;99.90;;;;;;7285776;19;20191;-75
2023/12/05 05:29:30;;;;;;;14.40;7.70;;;10.20;99.90;;;;;;7290006;19;20853;-75
2023/12/05 05:31:56;;;;;;;13.27;7.47;;;10.20;99.90;;;;;;7306306;19;20199;-76
2023/12/05 05:34:22;;;;;;;14.23;7.43;;;10.20;99.90;;;;;;7286407;19;20188;-76
2023/12/05 05:36:47;;;;;;;13.73;7.03;;;10.20;99.90;;;;;;7286104;19;20198;-76
2023/12/05 05:39:13;;;;;;;10.93;6.67;;;10.20;99.90;;;;;;7285434;19;20210;-76
2023/12/05 05:41:39;;;;;;;11.50;6.87;;;10.20;99.90;;;;;;7287094;19;20254;-76
2023/12/05 05:44:05;;;;;;;12.13;6.53;;;10.10;99.90;;;;;;7289412;19;20220;-76
2023/12/05 05:46:30;;;;;;;11.43;6.83;;;10.20;99.90;;;;;;7288025;19;20215;-76
2023/12/05 05:48:56;;;;;;;12.30;6.73;;;10.10;99.90;;;;;;7309112;19;20642;-78
2023/12/05 05:51:22;;;;;;;11.83;7.50;;;10.20;99.90;;;;;;7285619;19;20819;-78
2023/12/05 05:53:48;;;;;;;12.07;6.70;;;10.10;99.90;;;;;;7281822;19;20198;-77
2023/12/05 05:56:13;;;;;;;11.60;6.70;;;10.20;99.90;;;;;;7285784;19;20202;-78
2023/12/05 05:58:39;;;;;;;11.73;6.83;;;10.10;99.90;;;;;;7286314;19;20189;-77
2023/12/05 06:01:05;;;;;;;12.43;7.17;;;10.20;99.90;;;;;;7285718;19;20562;-79
2023/12/05 06:03:31;;;;;;;11.83;6.80;;;10.10;99.90;;;;;;7287856;19;20213;-78
2023/12/05 06:05:58;;;;;;;10.83;6.10;;;10.10;99.90;;;;;;7306197;19;20616;-79
2023/12/05 06:08:24;;;;;;;11.70;6.70;;;10.10;99.90;;;;;;7285982;19;20228;-78
2023/12/05 06:10:50;;;;;;;11.47;6.93;;;10.10;99.90;;;;;;7285523;19;20184;-77
2023/12/05 06:13:16;;;;;;;10.33;6.00;;;10.10;99.90;;;;;;7285089;19;20196;-77
2023/12/05 06:15:41;;;;;;;11.83;6.30;;;10.10;99.90;;;;;;7284068;19;20192;-76
2023/12/05 06:18:07;;;;;;;11.30;6.70;;;10.20;99.90;;;;;;7284124;19;20725;-75
2023/12/05 06:20:33;;;;;;;11.90;6.07;;;10.20;99.90;;;;;;7284206;19;20737;-76
2023/12/05 06:22:59;;;;;;;12.80;6.67;;;10.20;99.90;;;;;;7304394;19;20191;-75
2023/12/05 06:25:24;;;;;;;19.60;11.30;;;10.30;99.90;;;;;;7296022;19;20193;-75
2023/12/05 06:27:50;;;;;;;22.17;12.73;;;10.30;99.90;;;;;;7285458;19;20993;-76
2023/12/05 06:30:16;;;;;;;20.17;12.07;;;10.10;99.90;;;;;;7285114;19;20195;-77
2023/12/05 06:32:42;;;;;;;16.80;10.60;;;10.00;99.90;;;;;;7282092;19;20195;-77
2023/12/05 06:35:08;;;;;;;16.73;9.80;;;9.80;99.90;;;;;;7283891;19;20208;-76
2023/12/05 06:37:33;;;;;;;17.23;9.83;;;9.60;99.90;;;;;;7286094;19;20653;-77
2023/12/05 06:39:59;;;;;;;17.97;9.40;;;9.00;99.90;;;;;;7298480;19;20185;-76
2023/12/05 06:42:26;;;;;;;16.57;9.67;;;8.70;99.90;;;;;;7298343;19;20198;-76
2023/12/05 06:44:52;;;;;;;17.80;10.30;;;8.60;99.90;;;;;;7286635;19;20206;-76
2023/12/05 06:47:17;;;;;;;17.57;10.60;;;8.20;99.90;;;;;;7285095;19;20194;-78
2023/12/05 06:49:43;;;;;;;16.93;9.97;;;8.10;99.90;;;;;;7284753;19;20459;-76
2023/12/05 06:52:11;;;;;;;17.53;10.73;;;8.00;99.90;;;;;;7269633;19;20743;-75
2023/12/05 06:54:37;;;;;;;19.20;11.70;;;8.10;99.90;;;;;;7275360;19;20189;-75
2023/12/05 06:57:04;;;;;;;25.23;13.97;;;8.40;99.90;;;;;;7274698;19;20228;-76
2023/12/05 06:59:30;;;;;;;22.77;13.57;;;8.60;99.90;;;;;;7284291;19;20189;-75
2023/12/05 07:01:55;;;;;;;26.43;16.20;;;8.60;99.90;;;;;;7292348;19;20186;-75
2023/12/05 07:04:21;;;;;;;32.60;19.07;;;8.50;99.90;;;;;;7273204;19;20312;-75
2023/12/05 07:06:47;;;;;;;37.80;21.67;;;8.30;99.90;;;;;;7273623;19;20196;-76
2023/12/05 07:09:14;;;;;;;40.07;21.13;;;8.20;99.90;;;;;;7274338;19;20193;-74
2023/12/05 07:11:39;;;;;;;37.97;21.67;;;8.20;99.90;;;;;;7272764;19;20702;-75
2023/12/05 07:14:05;;;;;;;41.67;21.80;;;8.30;99.90;;;;;;7274012;19;20222;-75
2023/12/05 07:16:31;;;;;;;46.60;25.10;;;8.30;99.90;;;;;;7274866;19;20202;-75
2023/12/05 07:18:57;;;;;;;51.80;26.43;;;8.40;99.90;;;;;;7296926;19;20191;-75
2023/12/05 07:21:22;;;;;;;50.13;26.87;;;8.30;99.90;;;;;;7274339;19;20200;-75
2023/12/05 07:23:48;;;;;;;58.33;27.67;;;8.40;99.90;;;;;;7275498;19;21983;-75
2023/12/05 07:26:14;;;;;;;47.77;24.10;;;8.30;99.90;;;;;;7274420;19;20192;-75
2023/12/05 07:28:40;;;;;;;46.40;24.23;;;8.30;99.90;;;;;;7275106;19;20192;-76
2023/12/05 07:31:06;;;;;;;49.03;23.90;;;8.30;99.90;;;;;;7275122;19;20193;-76
2023/12/05 07:33:31;;;;;;;50.60;24.83;;;8.20;99.90;;;;;;7275241;19;20188;-75
2023/12/05 07:35:57;;;;;;;50.50;24.93;;;8.30;99.90;;;;;;7295626;19;20181;-75
2023/12/05 07:38:23;;;;;;;53.10;25.80;;;8.20;99.90;;;;;;7273890;19;20350;-76
2023/12/05 07:40:49;;;;;;;54.43;24.47;;;8.20;99.90;;;;;;7274941;19;20257;-75
2023/12/05 07:43:15;;;;;;;60.00;24.87;;;8.10;99.90;;;;;;7271374;19;20222;-75
2023/12/05 07:45:40;;;;;;;54.90;23.87;;;8.10;99.90;;;;;;7269638;19;20193;-75
2023/12/05 07:48:06;;;;;;;55.97;24.27;;;8.20;99.90;;;;;;7275109;19;20257;-75
2023/12/05 07:50:32;;;;;;;51.70;22.40;;;8.20;99.90;;;;;;7274925;19;20650;-75
2023/12/05 07:52:58;;;;;;;53.53;23.23;;;8.10;99.90;;;;;;7295116;19;20323;-75
2023/12/05 07:55:24;;;;;;;57.83;24.07;;;8.10;99.90;;;;;;7272826;19;20209;-75
2023/12/05 07:57:50;;;;;;;56.57;24.30;;;8.10;99.90;;;;;;7273617;19;20516;-75
2023/12/05 08:00:16;;;;;;;56.13;23.63;;;8.00;99.90;;;;;;7273379;19;20704;-75
2023/12/05 08:02:43;;;;;;;52.97;22.90;;;8.10;99.90;;;;;;7273879;19;20203;-75
2023/12/05 08:05:10;;;;;;;49.47;21.50;;;8.00;99.90;;;;;;7272864;19;20200;-75
2023/12/05 08:07:37;;;;;;;47.10;21.13;;;8.00;99.90;;;;;;7271282;19;20193;-75
2023/12/05 08:10:04;;;;;;;44.73;20.23;;;7.90;99.90;;;;;;7271893;19;20191;-75
2023/12/05 08:12:29;;;;;;;49.87;21.10;;;7.80;99.90;;;;;;7292654;19;20194;-74
2023/12/05 08:14:55;;;;;;;50.03;21.83;;;7.70;99.90;;;;;;7287441;19;20228;-75
2023/12/05 08:17:21;;;;;;;57.57;23.60;;;7.70;99.90;;;;;;7273581;19;20211;-75
2023/12/05 08:19:46;;;;;;;57.67;25.63;;;7.70;99.90;;;;;;7274047;19;20193;-75
2023/12/05 08:22:12;;;;;;;71.40;26.70;;;7.80;99.90;;;;;;7273282;19;20211;-76
2023/12/05 08:24:38;;;;;;;74.57;27.90;;;7.80;99.90;;;;;;7274418;19;20201;-75
2023/12/05 08:27:04;;;;;;;90.00;29.77;;;7.80;99.90;;;;;;7275855;19;20197;-75
2023/12/05 08:29:29;;;;;;;89.60;31.60;;;7.90;99.90;;;;;;7292391;19;20211;-74
2023/12/05 08:31:55;;;;;;;94.57;33.60;;;7.80;99.90;;;;;;7290092;19;20189;-75
2023/12/05 08:34:21;;;;;;;112.03;34.57;;;7.80;99.90;;;;;;7276253;19;20212;-75
2023/12/05 08:36:47;;;;;;;136.80;37.67;;;7.80;99.90;;;;;;7276999;19;20188;-75
2023/12/05 08:39:13;;;;;;;109.03;35.03;;;7.80;99.90;;;;;;7274223;19;20267;-76
2023/12/05 08:41:39;;;;;;;108.00;34.83;;;7.70;99.90;;;;;;7272820;19;20342;-75
2023/12/05 08:44:05;;;;;;;95.00;32.90;;;7.60;99.90;;;;;;7270303;19;20201;-75
2023/12/05 08:46:32;;;;;;;114.17;34.67;;;7.40;99.90;;;;;;7277107;19;20193;-75
2023/12/05 08:48:57;;;;;;;89.17;33.50;;;7.40;99.90;;;;;;7294501;19;20315;-75
2023/12/05 08:51:23;;;;;;;95.87;34.77;;;7.50;99.90;;;;;;7270816;19;20192;-76
2023/12/05 08:53:49;;;;;;;96.13;33.30;;;7.30;99.90;;;;;;7272181;19;20213;-75
2023/12/05 08:56:15;;;;;;;94.70;33.77;;;7.20;99.90;;;;;;7272767;19;20195;-75
2023/12/05 08:58:42;;;;;;;89.87;33.53;;;7.30;99.90;;;;;;7276537;19;20189;-76
2023/12/05 09:01:11;;;;;;;85.40;31.60;;;7.10;99.90;;;;;;7275864;19;20312;-75
2023/12/05 09:03:36;;;;;;;90.33;32.27;;;7.00;99.90;;;;;;7277026;19;20198;-75
2023/12/05 09:06:02;;;;;;;91.30;33.03;;;7.20;99.90;;;;;;7277279;19;20688;-75
2023/12/05 09:08:29;;;;;;;86.37;31.77;;;7.40;99.90;;;;;;7299176;19;20196;-76
2023/12/05 09:10:57;;;;;;;90.67;33.97;;;7.50;99.90;;;;;;7278254;19;20194;-76
2023/12/05 09:13:23;;;;;;;75.03;31.47;;;7.70;99.90;;;;;;7276376;19;20971;-75
2023/12/05 09:15:49;;;;;;;71.93;30.80;;;7.80;99.90;;;;;;7277069;19;20678;-75
2023/12/05 09:18:15;;;;;;;69.90;29.87;;;7.90;99.90;;;;;;7278465;19;20188;-75
2023/12/05 09:20:41;;;;;;;57.60;28.17;;;8.00;99.90;;;;;;7277080;19;20196;-76
2023/12/05 09:23:07;;;;;;;59.50;26.83;;;8.10;99.90;;;;;;7275051;19;20778;-75
2023/12/05 09:25:33;;;;;;;46.90;23.63;;;8.10;99.90;;;;;;7276804;19;20198;-75
2023/12/05 09:27:58;;;;;;;48.33;24.60;;;8.10;99.90;;;;;;7298632;19;20196;-76
2023/12/05 09:30:24;;;;;;;50.40;24.40;;;8.10;99.90;;;;;;7278046;19;20662;-76
2023/12/05 09:32:50;;;;;;;43.47;22.80;;;8.10;99.90;;;;;;7277005;19;20724;-75
2023/12/05 09:35:16;;;;;;;41.17;21.67;;;8.00;99.90;;;;;;7277461;19;20195;-74
2023/12/05 09:37:42;;;;;;;43.37;21.63;;;8.10;99.90;;;;;;7277359;19;20195;-75
2023/12/05 09:40:09;;;;;;;40.27;20.30;;;7.90;99.90;;;;;;7276970;19;20198;-76
2023/12/05 09:42:35;;;;;;;40.63;21.17;;;7.80;99.90;;;;;;7274722;19;20815;-75
2023/12/05 09:45:03;;;;;;;37.83;19.57;;;7.70;99.90;;;;;;7282710;19;20641;-75
2023/12/05 09:47:31;;;;;;;35.87;18.00;;;7.60;99.90;;;;;;7289021;19;20197;-74
2023/12/05 09:49:57;;;;;;;36.80;17.30;;;7.70;99.90;;;;;;7297206;19;20252;-75
2023/12/05 09:52:26;;;;;;;29.50;16.13;;;7.70;99.90;;;;;;7276549;19;20204;-75
2023/12/05 09:54:53;;;;;;;30.10;17.17;;;7.60;99.90;;;;;;7276040;19;20196;-76
2023/12/05 09:57:19;;;;;;;31.63;17.37;;;7.60;99.90;;;;;;7276849;19;20193;-75
2023/12/05 09:59:45;;;;;;;28.23;15.33;;;7.60;99.90;;;;;;7275276;19;20541;-75
2023/12/05 10:02:13;;;;;;;26.50;15.07;;;7.60;99.90;;;;;;7274885;19;20197;-75
2023/12/05 10:04:45;;;;;;;26.87;14.40;;;7.60;99.90;;;;;;7275726;19;20180;-75
2023/12/05 10:07:12;;;;;;;27.47;15.00;;;7.70;99.90;;;;;;7275180;19;20680;-75
2023/12/05 10:09:42;;;;;;;28.73;15.97;;;7.70;99.90;;;;;;7273530;19;20188;-75
2023/12/05 10:12:10;;;;;;;29.00;16.43;;;7.70;99.90;;;;;;7277169;19;20222;-75
2023/12/05 10:14:37;;;;;;;31.63;17.23;;;7.80;99.90;;;;;;7276671;19;20212;-76
2023/12/05 10:17:03;;;;;;;31.27;16.10;;;7.80;99.90;;;;;;7275367;19;20184;-76
2023/12/05 10:19:30;;;;;;;26.10;15.60;;;7.70;99.90;;;;;;7297889;19;20192;-75
2023/12/05 10:21:57;;;;;;;26.67;15.20;;;7.70;99.90;;;;;;7279829;19;20302;-77
2023/12/05 10:24:23;;;;;;;28.80;16.47;;;7.70;99.90;;;;;;7280220;19;20189;-77
2023/12/05 10:26:49;;;;;;;25.97;14.93;;;7.80;99.90;;;;;;7281411;19;20186;-77
2023/12/05 10:29:16;;;;;;;28.60;16.73;;;7.90;99.90;;;;;;7284126;19;20210;-77
2023/12/05 10:31:42;;;;;;;29.57;16.70;;;7.90;99.90;;;;;;7285115;19;20244;-77
2023/12/05 10:34:08;;;;;;;34.47;17.57;;;7.90;99.90;;;;;;7285367;19;20192;-76
2023/12/05 10:36:37;;;;;;;32.93;17.77;;;7.90;99.90;;;;;;7284226;19;20185;-77
2023/12/05 10:39:06;;;;;;;37.67;18.80;;;7.70;99.90;;;;;;7283015;19;20198;-77
2023/12/05 10:41:32;;;;;;;38.73;19.63;;;7.70;99.90;;;;;;7284053;19;20241;-76
2023/12/05 10:43:58;;;;;;;37.97;18.93;;;7.60;99.90;;;;;;7306707;19;20273;-77
2023/12/05 10:46:26;;;;;;;39.20;20.43;;;7.50;99.90;;;;;;7284112;19;20180;-77
2023/12/05 10:48:52;;;;;;;41.60;20.03;;;7.60;99.90;;;;;;7283308;19;20959;-77
2023/12/05 10:51:18;;;;;;;40.70;20.33;;;7.60;99.90;;;;;;7284504;19;20188;-77
2023/12/05 10:53:44;;;;;;;39.70;21.47;;;7.60;99.90;;;;;;7284004;19;20189;-77
2023/12/05 10:56:11;;;;;;;44.40;20.90;;;7.60;99.90;;;;;;7283892;19;20620;-77
2023/12/05 10:58:38;;;;;;;45.40;21.43;;;7.70;99.90;;;;;;7283837;19;20197;-76
2023/12/05 11:01:05;;;;;;;46.00;21.70;;;7.70;99.90;;;;;;7283181;19;20200;-76
2023/12/05 11:03:32;;;;;;;45.07;21.53;;;7.90;99.90;;;;;;7295839;19;20200;-76
2023/12/05 11:05:57;;;;;;;45.27;20.90;;;7.90;99.90;;;;;;7305096;19;20222;-77
2023/12/05 11:08:23;;;;;;;45.67;21.37;;;7.90;99.90;;;;;;7283361;19;20192;-76
2023/12/05 11:10:52;;;;;;;50.50;21.57;;;7.90;99.90;;;;;;7283216;19;20197;-77
2023/12/05 11:13:20;;;;;;;48.67;21.93;;;7.90;99.90;;;;;;7284300;19;20234;-77
2023/12/05 11:15:49;;;;;;;52.40;22.43;;;8.00;99.90;;;;;;7282772;19;20878;-76
2023/12/05 11:18:25;;;;;;;61.17;23.83;;;7.80;99.90;;;;;;7283029;19;20217;-76
2023/12/05 11:21:12;;;;;;;57.13;24.87;;;7.70;99.90;;;;;;7281497;19;20206;-77
2023/12/05 11:24:00;;;;;;;63.33;26.87;;;7.60;99.90;;;;;;7179092;19;2005992;-76
2023/12/05 11:26:38;;;;;;;67.00;28.10;;;7.50;99.90;;;;;;7282582;19;20199;-77
2023/12/05 11:29:20;;;;;;;67.63;27.60;;;7.50;99.90;;;;;;7261028;19;20268;-76
2023/12/05 11:31:57;;;;;;;63.87;27.70;;;7.50;99.90;;;;;;7282225;19;20537;-77
2023/12/05 11:34:52;;;;;;;65.43;26.70;;;7.50;99.90;;;;;;7282932;19;20203;-77
2023/12/05 11:37:29;;;;;;;60.17;25.87;;;7.50;99.90;;;;;;7180430;19;2004577;-77
2023/12/05 11:39:55;;;;;;;62.77;26.07;;;7.60;99.90;;;;;;7282683;19;20675;-77
2023/12/05 11:42:21;;;;;;;53.23;23.43;;;7.50;99.90;;;;;;7283561;19;20174;-77
2023/12/05 11:44:47;;;;;;;52.90;22.97;;;7.40;99.90;;;;;;7283515;19;20200;-77
2023/12/05 11:47:16;;;;;;;59.70;24.50;;;7.50;99.90;;;;;;7283646;19;20263;-77
2023/12/05 11:49:54;;;;;;;55.60;23.37;;;7.60;99.90;;;;;;7283027;19;20194;-77
2023/12/05 11:52:21;;;;;;;56.00;23.40;;;7.60;99.90;;;;;;7280974;19;20210;-77
2023/12/05 11:54:48;;;;;;;55.40;24.87;;;7.60;99.90;;;;;;7282436;19;20209;-77
2023/12/05 11:57:24;;;;;;;55.23;23.53;;;7.60;99.90;;;;;;7283843;19;20201;-77
2023/12/05 11:59:55;;;;;;;60.33;24.90;;;7.60;99.90;;;;;;7281828;19;20208;-76
2023/12/05 12:02:30;;;;;;;57.33;24.20;;;7.60;99.90;;;;;;7280795;19;20192;-76
2023/12/05 12:05:05;;;;;;;56.87;24.90;;;7.70;99.90;;;;;;7282111;19;20204;-77
2023/12/05 12:07:32;;;;;;;59.80;25.53;;;7.60;99.90;;;;;;7270410;19;20969;-77
2023/12/05 12:09:59;;;;;;;56.83;25.77;;;7.60;99.90;;;;;;7304661;19;20195;-77
2023/12/05 12:12:25;;;;;;;62.20;26.00;;;7.60;99.90;;;;;;7280560;19;20198;-77
2023/12/05 12:14:52;;;;;;;56.07;24.43;;;7.60;99.90;;;;;;7282117;19;20201;-76
2023/12/05 12:17:18;;;;;;;53.73;25.00;;;7.60;99.90;;;;;;7281583;19;20190;-77
2023/12/05 12:19:44;;;;;;;52.97;24.13;;;7.60;99.90;;;;;;7281847;19;20572;-76
2023/12/05 12:22:14;;;;;;;53.90;24.73;;;7.70;99.90;;;;;;7280453;19;20199;-77
2023/12/05 12:24:40;;;;;;;52.30;22.87;;;7.70;99.90;;;;;;7280546;19;20185;-76
2023/12/05 12:27:07;;;;;;;53.53;23.77;;;7.60;99.90;;;;;;7277487;19;20189;-78
2023/12/05 12:29:34;;;;;;;51.60;23.60;;;7.60;99.90;;;;;;7280037;19;20200;-77
2023/12/05 12:32:08;;;;;;;50.03;23.10;;;7.70;99.90;;;;;;7306225;19;20968;-77
2023/12/05 12:34:34;;;;;;;42.93;20.23;;;7.80;99.90;;;;;;7266729;19;20184;-77
2023/12/05 12:37:00;;;;;;;44.97;21.63;;;7.90;99.90;;;;;;7308424;19;20200;-76
2023/12/05 12:39:27;;;;;;;47.10;22.53;;;7.90;99.90;;;;;;7286368;19;20193;-77